sensor_id;sensor_type;location;lat;lon;timestamp;pressure;altitude;pressure_sealevel;temperature;humidity
19447;BME280;9862;49.462;11.054;2023-02-02T00:01:14;98219.53;;;6.18;100.00
19447;BME280;9862;49.462;11.054;2023-02-02T00:03:43;98209.59;;;6.20;100.00
19447;BME280;9862;49.462;11.054;2023-02-02T00:06:09;98210.31;;;6.14;100.00
19447;BME280;9862;49.462;11.054;2023-02-02T00:08:37;98213.59;;;6.16;100.00
19447;BME280;9862;49.462;11.054;2023-02-02T00:11:04;98207.72;;;6.06;100.00
19447;BME280;9862;49.462;11.054;2023-02-02T00:13:32;98194.50;;;6.06;100.00
19447;BME280;9862;49.462;11.054;2023-02-02T00:15:58;98206.72;;;6.07;100.00
19447;BME280;9862;49.462;11.054;2023-02-02T00:18:26;98183.41;;;6.11;100.00
19447;BME280;9862;49.462;11.054;2023-02-02T00:20:54;98184.59;;;6.08;100.00
19447;BME280;9862;49.462;11.054;2023-02-02T00:23:21;98194.00;;;6.11;100.00
19447;BME280;9862;49.462;11.054;2023-02-02T00:25:49;98189.97;;;6.15;100.00
19447;BME280;9862;49.462;11.054;2023-02-02T00:28:17;98190.53;;;6.10;100.00
19447;BME280;9862;49.462;11.054;2023-02-02T00:30:43;98191.16;;;6.12;100.00
19447;BME280;9862;49.462;11.054;2023-02-02T00:33:10;98195.16;;;6.08;100.00
19447;BME280;9862;49.462;11.054;2023-02-02T00:35:40;98195.50;;;6.05;100.00
19447;BME280;9862;49.462;11.054;2023-02-02T00:38:09;98196.50;;;6.04;100.00
19447;BME280;9862;49.462;11.054;2023-02-02T00:40:36;98191.53;;;6.09;100.00
19447;BME280;9862;49.462;11.054;2023-02-02T00:43:03;98206.78;;;5.99;100.00
19447;BME280;9862;49.462;11.054;2023-02-02T00:45:31;98206.66;;;5.92;100.00
19447;BME280;9862;49.462;11.054;2023-02-02T00:47:57;98203.22;;;5.84;100.00
19447;BME280;9862;49.462;11.054;2023-02-02T00:50:24;98196.75;;;5.86;100.00
19447;BME280;9862;49.462;11.054;2023-02-02T00:52:50;98202.22;;;5.85;100.00
19447;BME280;9862;49.462;11.054;2023-02-02T00:55:19;98185.72;;;5.83;100.00
19447;BME280;9862;49.462;11.054;2023-02-02T00:57:46;98190.03;;;5.75;100.00
19447;BME280;9862;49.462;11.054;2023-02-02T01:00:15;98189.44;;;5.65;100.00
19447;BME280;9862;49.462;11.054;2023-02-02T01:02:42;98213.56;;;5.62;100.00
19447;BME280;9862;49.462;11.054;2023-02-02T01:05:10;98200.81;;;5.66;100.00
19447;BME280;9862;49.462;11.054;2023-02-02T01:07:37;98207.25;;;5.71;100.00
19447;BME280;9862;49.462;11.054;2023-02-02T01:10:05;98223.38;;;5.77;100.00
19447;BME280;9862;49.462;11.054;2023-02-02T01:12:34;98260.13;;;5.86;100.00
19447;BME280;9862;49.462;11.054;2023-02-02T01:15:01;98271.53;;;5.79;100.00
19447;BME280;9862;49.462;11.054;2023-02-02T01:17:27;98282.78;;;5.41;100.00
19447;BME280;9862;49.462;11.054;2023-02-02T01:19:54;98295.34;;;5.15;100.00
19447;BME280;9862;49.462;11.054;2023-02-02T01:22:21;98273.16;;;4.77;100.00
19447;BME280;9862;49.462;11.054;2023-02-02T01:24:47;98268.03;;;4.51;100.00
19447;BME280;9862;49.462;11.054;2023-02-02T01:27:16;98307.34;;;4.20;100.00
19447;BME280;9862;49.462;11.054;2023-02-02T01:29:44;98271.44;;;4.11;100.00
19447;BME280;9862;49.462;11.054;2023-02-02T01:32:11;98259.13;;;4.27;100.00
19447;BME280;9862;49.462;11.054;2023-02-02T01:34:38;98309.63;;;4.07;100.00
19447;BME280;9862;49.462;11.054;2023-02-02T01:37:06;98282.59;;;4.05;100.00
19447;BME280;9862;49.462;11.054;2023-02-02T01:39:33;98275.53;;;4.05;100.00
19447;BME280;9862;49.462;11.054;2023-02-02T01:42:00;98332.59;;;3.88;100.00
19447;BME280;9862;49.462;11.054;2023-02-02T01:47:40;98310.84;;;3.44;100.00
19447;BME280;9862;49.462;11.054;2023-02-02T01:50:09;98345.19;;;2.91;100.00
19447;BME280;9862;49.462;11.054;2023-02-02T01:52:52;98318.81;;;3.00;100.00
19447;BME280;9862;49.462;11.054;2023-02-02T01:55:31;98331.78;;;3.02;100.00
19447;BME280;9862;49.462;11.054;2023-02-02T01:58:04;98325.06;;;3.07;100.00
19447;BME280;9862;49.462;11.054;2023-02-02T02:00:31;98342.09;;;2.95;100.00
19447;BME280;9862;49.462;11.054;2023-02-02T02:03:03;98337.47;;;3.15;100.00
19447;BME280;9862;49.462;11.054;2023-02-02T02:05:34;98330.22;;;3.09;100.00
19447;BME280;9862;49.462;11.054;2023-02-02T02:08:07;98354.31;;;3.04;100.00
19447;BME280;9862;49.462;11.054;2023-02-02T02:10:35;98359.34;;;2.98;100.00
19447;BME280;9862;49.462;11.054;2023-02-02T02:13:02;98330.22;;;3.09;100.00
19447;BME280;9862;49.462;11.054;2023-02-02T02:15:32;98351.59;;;3.14;100.00
19447;BME280;9862;49.462;11.054;2023-02-02T02:18:29;98357.72;;;2.79;100.00
19447;BME280;9862;49.462;11.054;2023-02-02T02:21:24;98335.34;;;2.75;100.00
19447;BME280;9862;49.462;11.054;2023-02-02T02:31:24;98341.34;;;2.85;100.00
19447;BME280;9862;49.462;11.054;2023-02-02T02:34:00;98345.00;;;3.10;100.00
19447;BME280;9862;49.462;11.054;2023-02-02T02:36:35;98348.97;;;3.14;100.00
19447;BME280;9862;49.462;11.054;2023-02-02T02:39:10;98351.00;;;3.20;100.00
19447;BME280;9862;49.462;11.054;2023-02-02T02:41:40;98340.66;;;3.27;100.00
19447;BME280;9862;49.462;11.054;2023-02-02T02:44:11;98353.25;;;3.15;100.00
19447;BME280;9862;49.462;11.054;2023-02-02T02:46:41;98356.53;;;3.17;100.00
19447;BME280;9862;49.462;11.054;2023-02-02T02:49:10;98351.19;;;3.27;100.00
19447;BME280;9862;49.462;11.054;2023-02-02T02:51:44;98360.59;;;3.29;100.00
19447;BME280;9862;49.462;11.054;2023-02-02T02:54:14;98358.88;;;3.20;100.00
19447;BME280;9862;49.462;11.054;2023-02-02T02:56:53;98365.69;;;3.31;100.00
19447;BME280;9862;49.462;11.054;2023-02-02T02:59:31;98358.31;;;3.34;100.00
19447;BME280;9862;49.462;11.054;2023-02-02T03:02:18;98363.50;;;3.26;100.00
19447;BME280;9862;49.462;11.054;2023-02-02T03:04:57;98381.63;;;3.29;100.00
19447;BME280;9862;49.462;11.054;2023-02-02T03:07:30;98370.00;;;3.14;100.00
19447;BME280;9862;49.462;11.054;2023-02-02T03:10:01;98373.69;;;3.03;100.00
19447;BME280;9862;49.462;11.054;2023-02-02T03:12:31;98373.94;;;3.10;100.00
19447;BME280;9862;49.462;11.054;2023-02-02T03:15:04;98385.94;;;3.12;100.00
19447;BME280;9862;49.462;11.054;2023-02-02T03:17:31;98371.06;;;3.03;100.00
19447;BME280;9862;49.462;11.054;2023-02-02T03:20:00;98374.22;;;3.07;100.00
19447;BME280;9862;49.462;11.054;2023-02-02T03:22:27;98384.13;;;3.13;100.00
19447;BME280;9862;49.462;11.054;2023-02-02T03:24:56;98379.22;;;3.18;100.00
19447;BME280;9862;49.462;11.054;2023-02-02T03:27:24;98391.09;;;3.22;100.00
19447;BME280;9862;49.462;11.054;2023-02-02T03:29:51;98396.81;;;3.17;100.00
19447;BME280;9862;49.462;11.054;2023-02-02T03:32:18;98395.94;;;3.35;100.00
19447;BME280;9862;49.462;11.054;2023-02-02T03:34:45;98392.06;;;3.39;100.00
19447;BME280;9862;49.462;11.054;2023-02-02T03:37:14;98384.78;;;3.59;100.00
19447;BME280;9862;49.462;11.054;2023-02-02T03:39:41;98384.41;;;3.80;100.00
19447;BME280;9862;49.462;11.054;2023-02-02T03:42:08;98383.25;;;3.82;100.00
19447;BME280;9862;49.462;11.054;2023-02-02T03:44:35;98381.28;;;3.84;100.00
19447;BME280;9862;49.462;11.054;2023-02-02T03:47:02;98390.97;;;3.84;100.00
19447;BME280;9862;49.462;11.054;2023-02-02T03:49:29;98381.28;;;3.84;100.00
19447;BME280;9862;49.462;11.054;2023-02-02T03:51:56;98370.75;;;3.84;100.00
19447;BME280;9862;49.462;11.054;2023-02-02T03:54:24;98373.31;;;3.76;100.00
19447;BME280;9862;49.462;11.054;2023-02-02T03:56:51;98375.00;;;3.77;100.00
19447;BME280;9862;49.462;11.054;2023-02-02T03:59:18;98375.72;;;3.87;100.00
19447;BME280;9862;49.462;11.054;2023-02-02T04:01:44;98369.47;;;3.88;100.00
19447;BME280;9862;49.462;11.054;2023-02-02T04:04:11;98374.44;;;3.99;100.00
19447;BME280;9862;49.462;11.054;2023-02-02T04:06:38;98367.72;;;4.13;100.00
19447;BME280;9862;49.462;11.054;2023-02-02T04:09:04;98369.25;;;4.16;100.00
19447;BME280;9862;49.462;11.054;2023-02-02T04:11:34;98367.31;;;4.34;100.00
19447;BME280;9862;49.462;11.054;2023-02-02T04:14:01;98358.91;;;4.30;100.00
19447;BME280;9862;49.462;11.054;2023-02-02T04:16:28;98354.31;;;4.41;100.00
19447;BME280;9862;49.462;11.054;2023-02-02T04:18:59;98344.81;;;4.64;100.00
19447;BME280;9862;49.462;11.054;2023-02-02T04:21:27;98334.94;;;4.66;100.00
19447;BME280;9862;49.462;11.054;2023-02-02T04:23:54;98339.38;;;4.82;100.00
19447;BME280;9862;49.462;11.054;2023-02-02T04:26:21;98337.56;;;4.91;100.00
19447;BME280;9862;49.462;11.054;2023-02-02T04:28:51;98346.63;;;4.96;100.00
19447;BME280;9862;49.462;11.054;2023-02-02T04:31:18;98335.91;;;4.98;100.00
19447;BME280;9862;49.462;11.054;2023-02-02T04:33:45;98341.84;;;5.00;100.00
19447;BME280;9862;49.462;11.054;2023-02-02T04:36:12;98344.47;;;4.92;100.00
19447;BME280;9862;49.462;11.054;2023-02-02T04:38:39;98345.31;;;4.92;100.00
19447;BME280;9862;49.462;11.054;2023-02-02T04:41:06;98358.50;;;5.00;100.00
19447;BME280;9862;49.462;11.054;2023-02-02T04:43:33;98362.78;;;5.09;100.00
19447;BME280;9862;49.462;11.054;2023-02-02T04:46:01;98387.03;;;5.21;100.00
19447;BME280;9862;49.462;11.054;2023-02-02T04:48:28;98394.78;;;5.31;100.00
19447;BME280;9862;49.462;11.054;2023-02-02T04:50:58;98392.94;;;5.47;100.00
19447;BME280;9862;49.462;11.054;2023-02-02T04:53:26;98413.56;;;5.44;100.00
19447;BME280;9862;49.462;11.054;2023-02-02T04:55:54;98404.31;;;5.40;100.00
19447;BME280;9862;49.462;11.054;2023-02-02T04:58:20;98379.44;;;5.26;100.00
19447;BME280;9862;49.462;11.054;2023-02-02T05:00:47;98381.72;;;5.37;100.00
19447;BME280;9862;49.462;11.054;2023-02-02T05:03:15;98407.63;;;5.01;100.00
19447;BME280;9862;49.462;11.054;2023-02-02T05:05:42;98397.66;;;4.63;100.00
19447;BME280;9862;49.462;11.054;2023-02-02T05:08:09;98406.81;;;4.34;100.00
19447;BME280;9862;49.462;11.054;2023-02-02T05:10:38;98403.84;;;4.29;100.00
19447;BME280;9862;49.462;11.054;2023-02-02T05:13:05;98404.50;;;4.31;100.00
19447;BME280;9862;49.462;11.054;2023-02-02T05:15:32;98404.59;;;4.55;100.00
19447;BME280;9862;49.462;11.054;2023-02-02T05:17:58;98402.47;;;4.67;100.00
19447;BME280;9862;49.462;11.054;2023-02-02T05:20:26;98409.91;;;4.64;100.00
19447;BME280;9862;49.462;11.054;2023-02-02T05:22:54;98403.28;;;4.59;100.00
19447;BME280;9862;49.462;11.054;2023-02-02T05:25:21;98390.59;;;4.55;100.00
19447;BME280;9862;49.462;11.054;2023-02-02T05:27:48;98401.97;;;4.72;100.00
19447;BME280;9862;49.462;11.054;2023-02-02T05:30:16;98391.94;;;4.75;100.00
19447;BME280;9862;49.462;11.054;2023-02-02T05:32:43;98394.75;;;4.82;100.00
19447;BME280;9862;49.462;11.054;2023-02-02T05:35:10;98400.38;;;4.87;100.00
19447;BME280;9862;49.462;11.054;2023-02-02T05:37:38;98410.25;;;5.01;100.00
19447;BME280;9862;49.462;11.054;2023-02-02T05:40:06;98402.69;;;4.98;100.00
19447;BME280;9862;49.462;11.054;2023-02-02T05:42:33;98404.31;;;4.99;100.00
19447;BME280;9862;49.462;11.054;2023-02-02T05:45:00;98408.94;;;4.97;100.00
19447;BME280;9862;49.462;11.054;2023-02-02T05:47:27;98413.56;;;4.95;100.00
19447;BME280;9862;49.462;11.054;2023-02-02T05:49:54;98411.56;;;4.89;100.00
19447;BME280;9862;49.462;11.054;2023-02-02T05:52:23;98419.81;;;4.86;100.00
19447;BME280;9862;49.462;11.054;2023-02-02T05:54:52;98426.38;;;4.82;100.00
19447;BME280;9862;49.462;11.054;2023-02-02T05:57:19;98429.50;;;4.69;100.00
19447;BME280;9862;49.462;11.054;2023-02-02T05:59:45;98434.72;;;4.53;100.00
19447;BME280;9862;49.462;11.054;2023-02-02T06:02:12;98434.66;;;4.28;100.00
19447;BME280;9862;49.462;11.054;2023-02-02T06:04:40;98434.09;;;4.17;100.00
19447;BME280;9862;49.462;11.054;2023-02-02T06:07:07;98441.31;;;4.15;100.00
19447;BME280;9862;49.462;11.054;2023-02-02T06:09:35;98450.75;;;3.91;100.00
19447;BME280;9862;49.462;11.054;2023-02-02T06:12:04;98435.31;;;3.96;100.00
19447;BME280;9862;49.462;11.054;2023-02-02T06:14:30;98454.25;;;3.74;100.00
19447;BME280;9862;49.462;11.054;2023-02-02T06:16:57;98447.72;;;3.78;100.00
19447;BME280;9862;49.462;11.054;2023-02-02T06:19:24;98444.44;;;3.84;100.00
19447;BME280;9862;49.462;11.054;2023-02-02T06:21:51;98442.34;;;3.88;100.00
19447;BME280;9862;49.462;11.054;2023-02-02T06:24:19;98446.09;;;3.85;100.00
19447;BME280;9862;49.462;11.054;2023-02-02T06:26:46;98444.81;;;3.89;100.00
19447;BME280;9862;49.462;11.054;2023-02-02T06:29:14;98447.09;;;3.84;100.00
19447;BME280;9862;49.462;11.054;2023-02-02T06:31:42;98457.28;;;3.79;100.00
19447;BME280;9862;49.462;11.054;2023-02-02T06:34:09;98454.69;;;3.87;100.00
19447;BME280;9862;49.462;11.054;2023-02-02T06:36:38;98456.84;;;3.92;100.00
19447;BME280;9862;49.462;11.054;2023-02-02T06:39:05;98459.63;;;3.90;100.00
19447;BME280;9862;49.462;11.054;2023-02-02T06:41:34;98456.41;;;3.96;100.00
19447;BME280;9862;49.462;11.054;2023-02-02T06:44:01;98449.97;;;3.99;100.00
19447;BME280;9862;49.462;11.054;2023-02-02T06:46:30;98464.19;;;4.06;100.00
19447;BME280;9862;49.462;11.054;2023-02-02T06:48:57;98465.00;;;4.07;100.00
19447;BME280;9862;49.462;11.054;2023-02-02T06:51:24;98469.25;;;3.99;100.00
19447;BME280;9862;49.462;11.054;2023-02-02T06:53:51;98464.47;;;4.03;100.00
19447;BME280;9862;49.462;11.054;2023-02-02T06:56:18;98465.47;;;4.02;100.00
19447;BME280;9862;49.462;11.054;2023-02-02T06:58:45;98462.66;;;4.03;100.00
19447;BME280;9862;49.462;11.054;2023-02-02T07:01:13;98472.63;;;4.18;100.00
19447;BME280;9862;49.462;11.054;2023-02-02T07:03:41;98478.72;;;4.18;100.00
19447;BME280;9862;49.462;11.054;2023-02-02T07:06:12;98480.47;;;4.10;100.00
19447;BME280;9862;49.462;11.054;2023-02-02T07:08:38;98471.44;;;4.12;100.00
19447;BME280;9862;49.462;11.054;2023-02-02T07:11:05;98476.19;;;4.09;100.00
19447;BME280;9862;49.462;11.054;2023-02-02T07:13:32;98467.47;;;4.08;100.00
19447;BME280;9862;49.462;11.054;2023-02-02T07:15:59;98467.03;;;4.21;100.00
19447;BME280;9862;49.462;11.054;2023-02-02T07:18:26;98467.41;;;4.34;100.00
19447;BME280;9862;49.462;11.054;2023-02-02T07:20:57;98478.97;;;4.41;100.00
19447;BME280;9862;49.462;11.054;2023-02-02T07:23:24;98485.91;;;4.42;100.00
19447;BME280;9862;49.462;11.054;2023-02-02T07:25:59;98482.59;;;4.40;100.00
19447;BME280;9862;49.462;11.054;2023-02-02T07:28:26;98486.44;;;4.46;100.00
19447;BME280;9862;49.462;11.054;2023-02-02T07:30:53;98483.31;;;4.50;100.00
19447;BME280;9862;49.462;11.054;2023-02-02T07:33:19;98478.03;;;4.50;100.00
19447;BME280;9862;49.462;11.054;2023-02-02T07:35:46;98482.34;;;4.59;100.00
19447;BME280;9862;49.462;11.054;2023-02-02T07:38:14;98478.09;;;4.67;100.00
19447;BME280;9862;49.462;11.054;2023-02-02T07:40:43;98481.44;;;4.77;100.00
19447;BME280;9862;49.462;11.054;2023-02-02T07:43:11;98476.34;;;4.83;100.00
19447;BME280;9862;49.462;11.054;2023-02-02T07:45:38;98479.97;;;4.91;100.00
19447;BME280;9862;49.462;11.054;2023-02-02T07:48:06;98480.81;;;5.07;100.00
19447;BME280;9862;49.462;11.054;2023-02-02T07:50:32;98475.38;;;5.09;100.00
19447;BME280;9862;49.462;11.054;2023-02-02T07:53:00;98475.22;;;5.10;100.00
19447;BME280;9862;49.462;11.054;2023-02-02T07:55:29;98468.47;;;5.16;100.00
19447;BME280;9862;49.462;11.054;2023-02-02T07:57:56;98467.00;;;5.22;100.00
19447;BME280;9862;49.462;11.054;2023-02-02T08:00:25;98463.56;;;5.21;100.00
19447;BME280;9862;49.462;11.054;2023-02-02T08:02:52;98468.13;;;5.19;100.00
19447;BME280;9862;49.462;11.054;2023-02-02T08:05:18;98468.47;;;5.16;100.00
19447;BME280;9862;49.462;11.054;2023-02-02T08:07:46;98471.94;;;5.16;100.00
19447;BME280;9862;49.462;11.054;2023-02-02T08:10:14;98469.78;;;5.04;100.00
19447;BME280;9862;49.462;11.054;2023-02-02T08:12:42;98488.03;;;4.89;100.00
19447;BME280;9862;49.462;11.054;2023-02-02T08:15:10;98480.44;;;4.78;100.00
19447;BME280;9862;49.462;11.054;2023-02-02T08:17:36;98486.38;;;4.80;100.00
19447;BME280;9862;49.462;11.054;2023-02-02T08:20:04;98488.22;;;4.87;100.00
19447;BME280;9862;49.462;11.054;2023-02-02T08:22:33;98480.75;;;4.75;100.00
19447;BME280;9862;49.462;11.054;2023-02-02T08:25:00;98493.97;;;4.91;100.00
19447;BME280;9862;49.462;11.054;2023-02-02T08:27:27;98486.56;;;4.86;100.00
19447;BME280;9862;49.462;11.054;2023-02-02T08:29:56;98490.31;;;4.76;100.00
19447;BME280;9862;49.462;11.054;2023-02-02T08:32:23;98487.34;;;4.79;100.00
19447;BME280;9862;49.462;11.054;2023-02-02T08:34:50;98488.38;;;4.86;100.00
19447;BME280;9862;49.462;11.054;2023-02-02T08:37:17;98488.06;;;4.97;100.00
19447;BME280;9862;49.462;11.054;2023-02-02T08:39:44;98492.84;;;5.02;100.00
19447;BME280;9862;49.462;11.054;2023-02-02T08:42:10;98490.03;;;4.95;100.00
19447;BME280;9862;49.462;11.054;2023-02-02T08:44:37;98492.84;;;5.02;100.00
19447;BME280;9862;49.462;11.054;2023-02-02T08:47:06;98489.84;;;4.88;100.00
19447;BME280;9862;49.462;11.054;2023-02-02T08:49:34;98483.13;;;4.94;100.00
19447;BME280;9862;49.462;11.054;2023-02-02T08:52:01;98493.66;;;4.94;100.00
19447;BME280;9862;49.462;11.054;2023-02-02T08:54:28;98487.72;;;4.92;100.00
19447;BME280;9862;49.462;11.054;2023-02-02T08:56:55;98503.22;;;4.95;100.00
19447;BME280;9862;49.462;11.054;2023-02-02T08:59:22;98498.59;;;4.89;100.00
19447;BME280;9862;49.462;11.054;2023-02-02T09:01:48;98492.28;;;4.82;100.00
19447;BME280;9862;49.462;11.054;2023-02-02T09:04:17;98493.50;;;4.96;100.00
19447;BME280;9862;49.462;11.054;2023-02-02T09:06:44;98480.78;;;4.91;100.00
19447;BME280;9862;49.462;11.054;2023-02-02T09:09:13;98496.34;;;5.02;100.00
19447;BME280;9862;49.462;11.054;2023-02-02T09:11:41;98496.31;;;5.10;100.00
19447;BME280;9862;49.462;11.054;2023-02-02T09:14:09;98499.63;;;5.21;100.00
19447;BME280;9862;49.462;11.054;2023-02-02T09:16:37;98502.91;;;5.06;100.00
19447;BME280;9862;49.462;11.054;2023-02-02T09:19:05;98495.47;;;4.94;100.00
19447;BME280;9862;49.462;11.054;2023-02-02T09:21:33;98500.44;;;5.05;100.00
19447;BME280;9862;49.462;11.054;2023-02-02T09:24:05;98495.28;;;4.87;100.00
19447;BME280;9862;49.462;11.054;2023-02-02T09:26:34;98495.31;;;4.95;100.00
19447;BME280;9862;49.462;11.054;2023-02-02T09:29:04;98494.00;;;5.07;100.00
19447;BME280;9862;49.462;11.054;2023-02-02T09:31:34;98504.22;;;5.10;100.00
19447;BME280;9862;49.462;11.054;2023-02-02T09:34:01;98509.38;;;5.20;100.00
19447;BME280;9862;49.462;11.054;2023-02-02T09:36:28;98496.84;;;5.30;100.00
19447;BME280;9862;49.462;11.054;2023-02-02T09:38:57;98501.97;;;5.40;100.00
19447;BME280;9862;49.462;11.054;2023-02-02T09:41:58;98502.31;;;5.45;100.00
19447;BME280;9862;49.462;11.054;2023-02-02T09:44:42;98496.38;;;5.43;100.00
19447;BME280;9862;49.462;11.054;2023-02-02T09:47:17;98507.41;;;5.46;100.00
19447;BME280;9862;49.462;11.054;2023-02-02T09:49:53;98504.78;;;5.55;100.00
19447;BME280;9862;49.462;11.054;2023-02-02T09:52:24;98516.97;;;5.47;100.00
19447;BME280;9862;49.462;11.054;2023-02-02T09:54:57;98503.97;;;5.54;100.00
19447;BME280;9862;49.462;11.054;2023-02-02T09:57:28;98500.16;;;5.65;100.00
19447;BME280;9862;49.462;11.054;2023-02-02T09:59:57;98507.59;;;5.69;100.00
19447;BME280;9862;49.462;11.054;2023-02-02T10:02:27;98506.09;;;5.59;100.00
19447;BME280;9862;49.462;11.054;2023-02-02T10:05:02;98507.75;;;5.68;100.00
19447;BME280;9862;49.462;11.054;2023-02-02T10:07:37;98514.50;;;5.79;100.00
19447;BME280;9862;49.462;11.054;2023-02-02T10:10:12;98509.91;;;5.64;100.00
19447;BME280;9862;49.462;11.054;2023-02-02T10:12:45;98511.88;;;5.62;100.00
19447;BME280;9862;49.462;11.054;2023-02-02T10:15:20;98503.31;;;5.60;100.00
19447;BME280;9862;49.462;11.054;2023-02-02T10:17:53;98503.63;;;5.65;100.00
19447;BME280;9862;49.462;11.054;2023-02-02T10:20:30;98500.66;;;5.77;100.00
19447;BME280;9862;49.462;11.054;2023-02-02T10:23:05;98509.22;;;5.87;100.00
19447;BME280;9862;49.462;11.054;2023-02-02T10:25:39;98500.66;;;5.93;100.00
19447;BME280;9862;49.462;11.054;2023-02-02T10:28:16;98503.28;;;6.09;100.00
19447;BME280;9862;49.462;11.054;2023-02-02T10:30:45;98489.72;;;6.12;100.00
19447;BME280;9862;49.462;11.054;2023-02-02T10:33:19;98491.72;;;6.10;100.00
19447;BME280;9862;49.462;11.054;2023-02-02T10:35:57;98492.56;;;6.11;100.00
19447;BME280;9862;49.462;11.054;2023-02-02T10:38:35;98483.09;;;6.16;100.00
19447;BME280;9862;49.462;11.054;2023-02-02T10:41:10;98486.75;;;6.15;100.00
19447;BME280;9862;49.462;11.054;2023-02-02T10:43:56;98486.09;;;6.05;100.00
19447;BME280;9862;49.462;11.054;2023-02-02T10:46:30;98478.19;;;6.05;100.00
19447;BME280;9862;49.462;11.054;2023-02-02T10:49:11;98496.38;;;6.08;100.00
19447;BME280;9862;49.462;11.054;2023-02-02T10:51:40;98485.09;;;6.14;100.00
19447;BME280;9862;49.462;11.054;2023-02-02T10:54:23;98478.16;;;6.13;100.00
19447;BME280;9862;49.462;11.054;2023-02-02T10:56:54;98479.00;;;6.14;100.00
19447;BME280;9862;49.462;11.054;2023-02-02T10:59:29;98482.28;;;6.16;100.00
19447;BME280;9862;49.462;11.054;2023-02-02T11:01:58;98468.25;;;6.15;100.00
19447;BME280;9862;49.462;11.054;2023-02-02T11:04:25;98474.53;;;6.14;100.00
19447;BME280;9862;49.462;11.054;2023-02-02T11:07:09;98465.75;;;6.22;100.00
19447;BME280;9862;49.462;11.054;2023-02-02T11:09:39;98461.81;;;6.18;100.00
19447;BME280;9862;49.462;11.054;2023-02-02T11:12:17;98468.22;;;6.23;100.00
19447;BME280;9862;49.462;11.054;2023-02-02T11:14:50;98459.09;;;6.34;100.00
19447;BME280;9862;49.462;11.054;2023-02-02T11:17:20;98455.28;;;6.37;100.00
19447;BME280;9862;49.462;11.054;2023-02-02T11:19:50;98461.25;;;6.39;100.00
19447;BME280;9862;49.462;11.054;2023-02-02T11:22:28;98466.84;;;6.44;100.00
19447;BME280;9862;49.462;11.054;2023-02-02T11:25:00;98478.56;;;6.49;100.00
19447;BME280;9862;49.462;11.054;2023-02-02T11:27:31;98472.91;;;6.52;100.00
19447;BME280;9862;49.462;11.054;2023-02-02T11:30:07;98475.13;;;6.41;100.00
19447;BME280;9862;49.462;11.054;2023-02-02T11:32:34;98477.91;;;6.47;100.00
19447;BME280;9862;49.462;11.054;2023-02-02T11:35:17;98489.94;;;6.50;100.00
19447;BME280;9862;49.462;11.054;2023-02-02T11:37:54;98483.97;;;6.56;100.00
19447;BME280;9862;49.462;11.054;2023-02-02T11:40:27;98483.03;;;6.49;100.00
19447;BME280;9862;49.462;11.054;2023-02-02T11:42:57;98478.00;;;6.62;100.00
19447;BME280;9862;49.462;11.054;2023-02-02T11:45:34;98478.34;;;6.59;100.00
19447;BME280;9862;49.462;11.054;2023-02-02T11:48:04;98484.47;;;6.59;100.00
19447;BME280;9862;49.462;11.054;2023-02-02T11:50:31;98475.69;;;6.59;100.00
19447;BME280;9862;49.462;11.054;2023-02-02T11:52:59;98466.44;;;6.55;100.00
19447;BME280;9862;49.462;11.054;2023-02-02T11:55:27;98473.06;;;6.59;100.00
19447;BME280;9862;49.462;11.054;2023-02-02T11:58:19;98476.53;;;6.59;100.00
19447;BME280;9862;49.462;11.054;2023-02-02T12:00:52;98478.53;;;6.57;100.00
19447;BME280;9862;49.462;11.054;2023-02-02T12:03:25;98475.06;;;6.57;100.00
19447;BME280;9862;49.462;11.054;2023-02-02T12:05:52;98468.28;;;6.54;100.00
19447;BME280;9862;49.462;11.054;2023-02-02T12:08:19;98473.16;;;6.66;100.00
19447;BME280;9862;49.462;11.054;2023-02-02T12:10:52;98466.59;;;6.62;100.00
19447;BME280;9862;49.462;11.054;2023-02-02T12:13:32;98483.28;;;6.62;100.00
19447;BME280;9862;49.462;11.054;2023-02-02T12:16:09;98485.75;;;6.64;100.00
19447;BME280;9862;49.462;11.054;2023-02-02T12:18:44;98482.47;;;6.62;100.00
19447;BME280;9862;49.462;11.054;2023-02-02T12:21:20;98475.69;;;6.59;100.00
19447;BME280;9862;49.462;11.054;2023-02-02T12:24:07;98480.47;;;6.64;100.00
19447;BME280;9862;49.462;11.054;2023-02-02T12:26:43;98478.47;;;6.66;100.00
19447;BME280;9862;49.462;11.054;2023-02-02T12:29:30;98476.00;;;6.64;100.00
19447;BME280;9862;49.462;11.054;2023-02-02T12:32:10;98490.22;;;6.63;100.00
19447;BME280;9862;49.462;11.054;2023-02-02T12:34:52;98494.22;;;6.59;100.00
19447;BME280;9862;49.462;11.054;2023-02-02T12:37:32;98491.22;;;6.62;100.00
19447;BME280;9862;49.462;11.054;2023-02-02T12:40:19;98504.09;;;6.65;100.00
19447;BME280;9862;49.462;11.054;2023-02-02T12:42:58;98494.84;;;6.69;100.00
19447;BME280;9862;49.462;11.054;2023-02-02T12:45:59;98502.78;;;6.61;100.00
19447;BME280;9862;49.462;11.054;2023-02-02T12:48:39;98495.50;;;6.63;100.00
19447;BME280;9862;49.462;11.054;2023-02-02T12:51:19;98496.75;;;6.75;100.00
19447;BME280;9862;49.462;11.054;2023-02-02T12:54:09;98499.78;;;6.64;100.00
19447;BME280;9862;49.462;11.054;2023-02-02T12:56:43;98517.28;;;6.73;100.00
19447;BME280;9862;49.462;11.054;2023-02-02T12:59:20;98506.44;;;6.60;100.00
19447;BME280;9862;49.462;11.054;2023-02-02T13:02:01;98532.22;;;6.66;100.00
19447;BME280;9862;49.462;11.054;2023-02-02T13:04:44;98508.03;;;6.77;100.00
19447;BME280;9862;49.462;11.054;2023-02-02T13:07:35;98506.50;;;6.83;100.00
19447;BME280;9862;49.462;11.054;2023-02-02T13:10:26;98509.97;;;6.83;100.00
19447;BME280;9862;49.462;11.054;2023-02-02T13:12:58;98503.66;;;6.84;100.00
19447;BME280;9862;49.462;11.054;2023-02-02T13:15:30;98519.53;;;6.84;100.00
19447;BME280;9862;49.462;11.054;2023-02-02T13:18:02;98521.84;;;6.87;100.00
19447;BME280;9862;49.462;11.054;2023-02-02T13:20:40;98527.16;;;6.87;100.00
19447;BME280;9862;49.462;11.054;2023-02-02T13:23:12;98528.25;;;6.93;100.00
19447;BME280;9862;49.462;11.054;2023-02-02T13:25:44;98520.03;;;6.88;100.00
19447;BME280;9862;49.462;11.054;2023-02-02T13:28:29;98526.28;;;6.95;100.00